createdAt,value
2019-03-05T00:01:30.941Z,65.46
2019-03-05T00:04:00.163Z,65.87
2019-03-05T00:06:29.419Z,66.85
2019-03-05T00:08:58.770Z,67.68
2019-03-05T00:11:28.001Z,68.26
2019-03-05T00:13:57.242Z,68.93
2019-03-05T00:16:26.459Z,69.64
2019-03-05T00:18:55.753Z,70.11
2019-03-05T00:21:25.033Z,70.74
2019-03-05T00:23:56.807Z,70.79
2019-03-05T00:26:32.142Z,71.33
2019-03-05T00:29:51.535Z,71.82
2019-03-05T00:32:20.836Z,71.68
2019-03-05T00:35:17.677Z,72.12
2019-03-05T00:38:16.338Z,71.44
2019-03-05T00:41:23.201Z,71.09
2019-03-05T00:44:03.998Z,71.62
2019-03-05T00:46:56.139Z,71.76
2019-03-05T00:49:50.959Z,72.24
2019-03-05T00:52:55.464Z,72.84
2019-03-05T00:56:06.499Z,73.80
2019-03-05T00:58:59.267Z,74.18
2019-03-05T01:01:49.711Z,74.52
2019-03-05T01:04:51.721Z,75.03
2019-03-05T01:07:21.071Z,76.28
2019-03-05T01:09:52.873Z,77.28
2019-03-05T01:12:20.183Z,77.94
2019-03-05T01:14:49.428Z,78.36
2019-03-05T01:17:18.611Z,78.87
2019-03-05T01:19:47.869Z,79.14
2019-03-05T01:22:17.061Z,79.07
2019-03-05T01:24:46.299Z,78.85
2019-03-05T01:27:15.581Z,78.87
2019-03-05T01:29:44.789Z,79.48
2019-03-05T01:32:22.425Z,79.88
2019-03-05T01:34:58.057Z,80.11
2019-03-05T01:37:27.295Z,80.12
2019-03-05T01:40:24.701Z,80.68
2019-03-05T01:42:53.880Z,80.80
2019-03-05T01:45:23.092Z,80.65
2019-03-05T01:47:52.377Z,81.06
2019-03-05T01:50:21.561Z,80.80
2019-03-05T01:52:50.774Z,81.02
2019-03-05T01:55:19.957Z,80.64
2019-03-05T01:57:49.173Z,80.78
2019-03-05T02:00:18.403Z,80.83
2019-03-05T02:02:47.643Z,80.59
2019-03-05T02:05:16.924Z,80.56
2019-03-05T02:07:46.111Z,80.73
2019-03-05T02:10:19.675Z,80.25
2019-03-05T02:12:48.877Z,80.18
2019-03-05T02:15:18.127Z,80.27
2019-03-05T02:17:47.377Z,80.00
2019-03-05T02:20:22.044Z,79.92
2019-03-05T02:23:30.465Z,79.56
2019-03-05T02:26:24.560Z,79.28
2019-03-05T02:29:28.887Z,78.89
2019-03-05T02:32:40.191Z,78.21
2019-03-05T02:35:14.985Z,78.17
2019-03-05T02:38:23.059Z,77.96
2019-03-05T02:41:25.604Z,77.73
2019-03-05T02:44:17.125Z,77.40
2019-03-05T02:47:26.597Z,76.96
2019-03-05T02:50:38.996Z,76.45
2019-03-05T02:54:02.238Z,76.24
2019-03-05T02:57:16.189Z,76.15
2019-03-05T02:59:45.379Z,76.11
2019-03-05T03:02:32.451Z,75.47
2019-03-05T03:05:14.282Z,75.47
2019-03-05T03:07:43.470Z,75.60
2019-03-05T03:10:20.727Z,75.09
2019-03-05T03:12:50.037Z,74.90
2019-03-05T03:15:19.735Z,74.82
2019-03-05T03:17:49.613Z,74.33
2019-03-05T03:20:19.875Z,74.35
2019-03-05T03:22:49.097Z,74.11
2019-03-05T03:25:22.039Z,74.09
2019-03-05T03:27:51.205Z,73.76
2019-03-05T03:30:24.869Z,73.74
2019-03-05T03:32:54.082Z,73.59
2019-03-05T03:35:23.252Z,73.47
2019-03-05T03:37:52.461Z,73.71
2019-03-05T03:40:22.677Z,73.25
2019-03-05T03:42:52.484Z,72.86
2019-03-05T03:45:23.299Z,72.69
2019-03-05T03:47:52.484Z,72.63
2019-03-05T03:50:21.736Z,72.36
2019-03-05T03:52:51.004Z,71.98
2019-03-05T03:55:20.203Z,71.84
2019-03-05T03:57:49.398Z,71.65
2019-03-05T04:00:23.019Z,71.75
2019-03-05T04:02:52.782Z,71.57
2019-03-05T04:05:22.025Z,71.35
2019-03-05T04:07:51.245Z,70.99
2019-03-05T04:10:20.461Z,70.97
2019-03-05T04:12:49.675Z,70.70
2019-03-05T04:15:20.143Z,70.39
2019-03-05T04:17:49.336Z,70.41
2019-03-05T04:20:24.834Z,70.39
2019-03-05T04:22:54.054Z,70.03
2019-03-05T04:25:23.318Z,70.30
2019-03-05T04:27:52.524Z,70.11
2019-03-05T04:30:21.739Z,70.25
2019-03-05T04:32:50.985Z,70.37
2019-03-05T04:35:20.286Z,69.99
2019-03-05T04:37:49.505Z,70.00
2019-03-05T04:40:18.764Z,70.11
2019-03-05T04:42:48.004Z,70.00
2019-03-05T04:45:52.131Z,70.23
2019-03-05T04:48:21.418Z,70.22
2019-03-05T04:51:06.199Z,70.26
2019-03-05T04:53:35.431Z,70.44
2019-03-05T04:56:04.664Z,70.53
2019-03-05T04:58:33.893Z,70.25
2019-03-05T05:01:03.249Z,69.96
2019-03-05T05:03:32.512Z,69.52
2019-03-05T05:06:01.663Z,69.21
2019-03-05T05:08:30.909Z,69.07
2019-03-05T05:11:00.107Z,69.08
2019-03-05T05:13:29.357Z,69.00
2019-03-05T05:15:58.557Z,68.98
2019-03-05T05:18:27.785Z,68.75
2019-03-05T05:20:56.993Z,68.82
2019-03-05T05:23:26.221Z,68.87
2019-03-05T05:25:55.445Z,69.21
2019-03-05T05:28:24.669Z,69.29
2019-03-05T05:30:53.866Z,69.29
2019-03-05T05:33:23.080Z,69.14
2019-03-05T05:35:52.275Z,69.00
2019-03-05T05:38:21.483Z,68.86
2019-03-05T05:40:50.725Z,69.21
2019-03-05T05:43:26.906Z,69.19
2019-03-05T05:45:56.112Z,68.78
2019-03-05T05:48:25.341Z,68.42
2019-03-05T05:50:54.545Z,68.39
2019-03-05T05:53:23.763Z,67.65
2019-03-05T05:55:52.967Z,67.94
2019-03-05T05:58:22.203Z,67.85
2019-03-05T06:00:53.553Z,68.13
2019-03-05T06:03:22.783Z,68.26
2019-03-05T06:05:52.007Z,68.25
2019-03-05T06:08:21.185Z,68.68
2019-03-05T06:10:52.768Z,68.64
2019-03-05T06:13:19.693Z,68.83
2019-03-05T06:15:48.905Z,69.36
2019-03-05T06:18:18.114Z,68.88
2019-03-05T06:20:47.399Z,68.74
2019-03-05T06:23:16.742Z,68.60
2019-03-05T06:25:46.009Z,68.82
2019-03-05T06:28:15.201Z,69.09
2019-03-05T06:30:44.620Z,69.39
2019-03-05T06:33:14.038Z,69.28
2019-03-05T06:35:43.258Z,69.40
2019-03-05T06:38:12.497Z,69.53
2019-03-05T06:40:41.711Z,69.49
2019-03-05T06:43:10.916Z,69.63
2019-03-05T06:45:40.263Z,69.77
2019-03-05T06:48:09.663Z,69.55
2019-03-05T06:50:38.975Z,69.42
2019-03-05T06:53:08.182Z,69.35
2019-03-05T06:55:37.397Z,69.09
2019-03-05T06:58:06.784Z,69.12
2019-03-05T07:00:37.331Z,68.75
2019-03-05T07:03:07.658Z,68.66
2019-03-05T07:06:13.692Z,68.79
2019-03-05T07:08:47.364Z,68.52
2019-03-05T07:11:45.335Z,68.24
2019-03-05T07:14:19.775Z,68.35
2019-03-05T07:17:13.998Z,67.98
2019-03-05T07:20:05.685Z,67.63
2019-03-05T07:22:50.477Z,67.75
2019-03-05T07:25:19.797Z,67.72
2019-03-05T07:27:55.705Z,67.89
2019-03-05T07:30:26.469Z,67.73
2019-03-05T07:32:57.096Z,67.62
2019-03-05T07:35:27.542Z,67.59
2019-03-05T07:37:56.830Z,67.59
2019-03-05T07:40:26.104Z,67.37
2019-03-05T07:42:55.369Z,67.11
2019-03-05T07:45:24.611Z,66.78
2019-03-05T07:47:53.947Z,66.81
2019-03-05T07:50:23.247Z,66.41
2019-03-05T07:52:52.503Z,65.48
2019-03-05T07:55:21.781Z,65.09
2019-03-05T07:57:51.134Z,64.69
2019-03-05T08:00:24.294Z,64.69
2019-03-05T08:02:50.806Z,63.80
2019-03-05T08:05:20.045Z,62.77
2019-03-05T08:07:49.434Z,62.29
2019-03-05T08:10:24.395Z,61.41
2019-03-05T08:13:04.318Z,61.30
2019-03-05T08:16:02.539Z,61.71
2019-03-05T08:18:23.960Z,61.55
2019-03-05T08:20:53.215Z,61.68
2019-03-05T08:23:22.460Z,62.05
2019-03-05T08:25:51.743Z,62.42
2019-03-05T08:28:21.050Z,63.13
2019-03-05T08:30:50.311Z,62.97
2019-03-05T08:33:19.648Z,63.53
2019-03-05T08:35:48.936Z,63.91
2019-03-05T08:38:18.249Z,64.21
2019-03-05T08:40:47.511Z,64.20
2019-03-05T08:43:16.833Z,63.88
2019-03-05T08:45:46.129Z,63.59
2019-03-05T08:48:15.387Z,62.36
2019-03-05T08:50:44.755Z,61.76
2019-03-05T08:53:13.991Z,61.18
2019-03-05T08:55:43.250Z,61.92
2019-03-05T08:58:12.491Z,61.79
2019-03-05T09:00:41.763Z,62.53
2019-03-05T09:03:11.009Z,62.32
2019-03-05T09:05:40.219Z,62.64
2019-03-05T09:08:09.563Z,62.75
2019-03-05T09:10:38.835Z,62.54
2019-03-05T09:13:08.701Z,62.14
2019-03-05T09:15:38.076Z,62.15
2019-03-05T09:18:07.351Z,61.96
2019-03-05T09:20:36.665Z,61.45
2019-03-05T09:23:05.962Z,61.67
2019-03-05T09:25:35.227Z,62.05
2019-03-05T09:28:04.449Z,61.81
2019-03-05T09:30:33.671Z,62.26
2019-03-05T09:33:02.978Z,61.92
2019-03-05T09:35:32.280Z,61.60
2019-03-05T09:38:01.547Z,61.56
2019-03-05T09:40:30.993Z,61.44
2019-03-05T09:43:00.267Z,61.40
2019-03-05T09:45:29.539Z,61.49
2019-03-05T09:47:58.710Z,61.94
2019-03-05T09:50:28.068Z,62.03
2019-03-05T09:52:57.338Z,62.55
2019-03-05T09:55:26.854Z,62.91
2019-03-05T09:58:06.956Z,63.01
2019-03-05T10:00:25.627Z,63.04
2019-03-05T10:02:54.856Z,63.20
2019-03-05T10:05:24.195Z,63.42
2019-03-05T10:07:53.394Z,63.70
2019-03-05T10:10:23.768Z,63.40
2019-03-05T10:12:53.111Z,63.08
2019-03-05T10:15:22.403Z,63.76
2019-03-05T10:17:51.611Z,64.07
2019-03-05T10:20:21.633Z,65.01
2019-03-05T10:22:54.101Z,65.94
2019-03-05T10:25:23.413Z,65.77
2019-03-05T10:27:52.678Z,65.83
2019-03-05T10:30:24.967Z,64.87
2019-03-05T10:32:53.155Z,64.77
2019-03-05T10:35:24.101Z,63.27
2019-03-05T10:37:54.006Z,62.67
2019-03-05T10:40:26.759Z,62.27
2019-03-05T10:42:56.039Z,62.15
2019-03-05T10:45:25.286Z,60.88
2019-03-05T10:47:54.518Z,60.91
2019-03-05T10:50:24.890Z,60.34
2019-03-05T10:52:54.155Z,60.15
2019-03-05T10:55:26.567Z,59.97
2019-03-05T10:57:52.617Z,59.46
2019-03-05T11:00:24.199Z,58.73
2019-03-05T11:02:53.469Z,58.86
2019-03-05T11:05:22.748Z,59.13
2019-03-05T11:07:52.078Z,59.31
2019-03-05T11:10:21.317Z,59.47
2019-03-05T11:12:50.546Z,59.33
2019-03-05T11:15:22.453Z,59.88
2019-03-05T11:17:51.718Z,59.79
2019-03-05T11:20:20.997Z,60.18
2019-03-05T11:22:50.305Z,61.27
2019-03-05T11:25:19.537Z,62.09
2019-03-05T11:27:48.791Z,60.88
2019-03-05T11:30:22.911Z,58.95
2019-03-05T11:32:52.175Z,55.87
2019-03-05T11:35:23.306Z,53.54
2019-03-05T11:37:52.538Z,53.54
2019-03-05T11:40:21.783Z,53.10
2019-03-05T11:42:51.063Z,54.34
2019-03-05T11:45:22.432Z,57.80
2019-03-05T11:47:51.654Z,57.80
2019-03-05T11:50:20.930Z,62.03
2019-03-05T11:52:50.227Z,63.49
2019-03-05T11:55:20.139Z,64.71
2019-03-05T11:57:49.411Z,66.61
2019-03-05T12:00:24.549Z,68.54
2019-03-05T12:02:53.768Z,71.06
2019-03-05T12:05:23.055Z,73.66
2019-03-05T12:07:52.365Z,74.05
2019-03-05T12:10:21.696Z,74.79
2019-03-05T12:12:50.960Z,73.54
2019-03-05T12:15:20.319Z,69.35
2019-03-05T12:17:49.704Z,67.63
2019-03-05T12:20:18.951Z,67.04
2019-03-05T12:22:48.194Z,67.04
2019-03-05T12:25:17.518Z,66.47
2019-03-05T12:27:46.743Z,65.12
2019-03-05T12:30:18.758Z,61.45
2019-03-05T12:32:48.008Z,59.57
2019-03-05T12:35:17.365Z,61.32
2019-03-05T12:37:46.641Z,62.44
2019-03-05T12:40:16.268Z,63.60
2019-03-05T12:42:45.463Z,64.35
2019-03-05T12:45:14.751Z,64.59
2019-03-05T12:47:44.070Z,66.78
2019-03-05T12:50:15.678Z,68.70
2019-03-05T12:52:45.448Z,66.30
2019-03-05T12:55:14.715Z,61.58
2019-03-05T12:57:44.052Z,58.29
2019-03-05T13:00:16.167Z,58.11
2019-03-05T13:02:45.498Z,58.11
2019-03-05T13:05:15.517Z,57.82
2019-03-05T13:07:45.007Z,54.88
2019-03-05T13:10:16.863Z,55.05
2019-03-05T13:12:46.102Z,55.05
2019-03-05T13:15:17.625Z,55.14
2019-03-05T13:17:47.126Z,56.10
2019-03-05T13:20:16.447Z,56.10
2019-03-05T13:22:45.635Z,55.85
2019-03-05T13:25:15.973Z,54.61
2019-03-05T13:27:45.197Z,53.67
2019-03-05T13:30:16.277Z,53.67
2019-03-05T13:32:45.496Z,54.51
2019-03-05T13:35:15.541Z,53.40
2019-03-05T13:37:45.323Z,52.36
2019-03-05T13:40:17.198Z,50.92
2019-03-05T13:42:46.485Z,50.92
2019-03-05T13:45:15.713Z,50.28
2019-03-05T13:47:54.613Z,48.52
2019-03-05T13:50:35.920Z,47.58
2019-03-05T13:54:00.003Z,48.06
2019-03-05T13:57:00.201Z,48.27
2019-03-05T13:59:46.424Z,48.27
2019-03-05T14:02:22.074Z,48.27
2019-03-05T14:05:13.985Z,47.82
2019-03-05T14:08:24.905Z,47.06
2019-03-05T14:10:54.101Z,46.85
2019-03-05T14:13:23.703Z,46.23
2019-03-05T14:15:52.673Z,46.87
2019-03-05T14:18:21.911Z,49.16
2019-03-05T14:20:51.274Z,50.07
2019-03-05T14:23:20.508Z,49.46
2019-03-05T14:25:49.744Z,49.82
2019-03-05T14:28:19.739Z,50.07
2019-03-05T14:30:48.264Z,48.91
2019-03-05T14:33:17.492Z,49.89
2019-03-05T14:35:47.640Z,49.89
2019-03-05T14:38:16.962Z,50.31
2019-03-05T14:40:46.229Z,50.64
2019-03-05T14:43:15.480Z,52.00
2019-03-05T14:45:44.697Z,52.00
2019-03-05T14:48:13.966Z,50.56
2019-03-05T14:50:43.221Z,51.50
2019-03-05T14:53:12.507Z,52.00
2019-03-05T14:55:41.833Z,51.81
2019-03-05T14:58:11.037Z,51.15
2019-03-05T15:00:40.423Z,51.62
2019-03-05T15:03:09.639Z,51.89
2019-03-05T15:05:38.865Z,51.79
2019-03-05T15:08:08.119Z,51.37
2019-03-05T15:10:37.277Z,51.36
2019-03-05T15:13:15.329Z,50.05
2019-03-05T15:15:35.846Z,50.28
2019-03-05T15:18:05.123Z,51.36
2019-03-05T15:20:34.432Z,52.17
2019-03-05T15:23:03.764Z,52.30
2019-03-05T15:25:33.011Z,52.59
2019-03-05T15:28:02.339Z,52.21
2019-03-05T15:30:31.620Z,51.08
2019-03-05T15:33:00.876Z,50.04
2019-03-05T15:35:30.190Z,48.41
2019-03-05T15:37:59.391Z,47.84
2019-03-05T15:40:28.659Z,49.60
2019-03-05T15:42:57.995Z,50.18
2019-03-05T15:45:27.196Z,50.18
2019-03-05T15:47:56.426Z,50.98
2019-03-05T15:50:25.995Z,51.73
2019-03-05T15:52:55.115Z,52.26
2019-03-05T15:55:24.416Z,52.30
2019-03-05T15:57:53.700Z,52.71
2019-03-05T16:00:26.524Z,53.33
2019-03-05T16:02:55.734Z,53.03
2019-03-05T16:05:24.985Z,53.43
2019-03-05T16:07:54.254Z,53.06
2019-03-05T16:10:23.474Z,53.73
2019-03-05T16:12:52.787Z,52.76
2019-03-05T16:15:22.041Z,53.18
2019-03-05T16:17:51.291Z,52.68
2019-03-05T16:20:20.563Z,52.38
2019-03-05T16:22:51.213Z,52.73
2019-03-05T16:25:19.105Z,53.07
2019-03-05T16:27:48.385Z,52.69
2019-03-05T16:30:37.502Z,53.10
2019-03-05T16:33:38.510Z,53.07
2019-03-05T16:36:30.567Z,52.99
2019-03-05T16:39:27.289Z,52.90
2019-03-05T16:42:09.022Z,52.35
2019-03-05T16:44:55.821Z,51.71
2019-03-05T16:47:47.457Z,52.21
2019-03-05T16:50:45.142Z,52.37
2019-03-05T16:53:36.121Z,52.66
2019-03-05T16:56:22.987Z,53.04
2019-03-05T16:59:12.073Z,53.43
2019-03-05T17:02:02.307Z,53.31
2019-03-05T17:05:03.032Z,53.60
2019-03-05T17:07:43.397Z,53.91
2019-03-05T17:10:46.703Z,54.13
2019-03-05T17:13:15.943Z,54.34
2019-03-05T17:15:45.258Z,54.34
2019-03-05T17:18:14.498Z,54.48
2019-03-05T17:20:43.897Z,54.65
2019-03-05T17:23:13.148Z,54.65
2019-03-05T17:25:42.426Z,54.77
2019-03-05T17:28:11.644Z,54.84
2019-03-05T17:30:41.046Z,54.95
2019-03-05T17:33:10.367Z,55.21
2019-03-05T17:35:39.608Z,55.59
2019-03-05T17:38:08.855Z,55.89
2019-03-05T17:40:38.164Z,55.99
2019-03-05T17:43:07.493Z,56.16
2019-03-05T17:45:36.913Z,56.28
2019-03-05T17:48:06.228Z,56.77
2019-03-05T17:50:35.459Z,56.82
2019-03-05T17:53:04.882Z,57.35
2019-03-05T17:55:34.125Z,57.73
2019-03-05T17:58:03.363Z,58.19
2019-03-05T18:00:34.416Z,58.42
2019-03-05T18:03:03.731Z,58.29
2019-03-05T18:05:33.022Z,58.46
2019-03-05T18:08:02.270Z,58.71
2019-03-05T18:10:31.616Z,58.98
2019-03-05T18:13:00.897Z,59.18
2019-03-05T18:15:30.145Z,59.44
2019-03-05T18:17:59.410Z,59.29
2019-03-05T18:20:28.744Z,58.91
2019-03-05T18:22:58.746Z,59.31
2019-03-05T18:25:28.033Z,59.44
2019-03-05T18:27:57.352Z,59.45
2019-03-05T18:30:26.574Z,59.68
2019-03-05T18:32:55.835Z,59.91
2019-03-05T18:35:25.366Z,59.90
2019-03-05T18:37:54.666Z,60.26
2019-03-05T18:40:24.245Z,60.35
2019-03-05T18:42:53.628Z,60.69
2019-03-05T18:45:24.084Z,60.92
2019-03-05T18:47:53.437Z,60.88
2019-03-05T18:50:23.043Z,61.11
2019-03-05T18:52:52.285Z,61.44
2019-03-05T18:55:21.727Z,61.68
2019-03-05T18:57:50.999Z,61.87
2019-03-05T19:00:21.848Z,62.12
2019-03-05T19:02:52.781Z,62.61
2019-03-05T19:05:22.196Z,62.44
2019-03-05T19:07:51.468Z,62.60
2019-03-05T19:10:21.202Z,62.76
2019-03-05T19:12:50.477Z,62.63
2019-03-05T19:15:20.525Z,62.74
2019-03-05T19:17:49.756Z,62.95
2019-03-05T19:20:20.980Z,63.26
2019-03-05T19:22:50.359Z,63.28
2019-03-05T19:25:21.920Z,63.37
2019-03-05T19:27:51.220Z,63.76
2019-03-05T19:30:22.726Z,63.66
2019-03-05T19:32:51.968Z,64.12
2019-03-05T19:35:21.215Z,64.42
2019-03-05T19:37:50.490Z,64.59
2019-03-05T19:40:21.998Z,64.85
2019-03-05T19:42:51.228Z,64.76
2019-03-05T19:45:23.611Z,65.24
2019-03-05T19:47:52.845Z,65.35
2019-03-05T19:50:22.094Z,65.95
2019-03-05T19:52:51.351Z,65.96
2019-03-05T19:55:23.648Z,65.98
2019-03-05T19:57:52.902Z,66.10
2019-03-05T20:00:34.860Z,66.11
2019-03-05T20:03:04.120Z,66.62
2019-03-05T20:05:33.344Z,66.77
2019-03-05T20:08:02.596Z,66.80
2019-03-05T20:10:31.829Z,66.77
2019-03-05T20:13:01.030Z,66.90
2019-03-05T20:15:30.336Z,66.93
2019-03-05T20:17:59.560Z,67.37
2019-03-05T20:20:28.769Z,67.48
2019-03-05T20:22:58.061Z,67.90
2019-03-05T20:25:27.456Z,68.15
2019-03-05T20:27:56.805Z,67.89
2019-03-05T20:30:26.049Z,67.91
2019-03-05T20:32:55.322Z,67.95
2019-03-05T20:35:24.574Z,68.04
2019-03-05T20:37:53.860Z,68.34
2019-03-05T20:40:23.099Z,68.60
2019-03-05T20:42:52.414Z,68.69
2019-03-05T20:45:24.889Z,68.60
2019-03-05T20:47:54.235Z,68.92
2019-03-05T20:50:23.479Z,68.88
2019-03-05T20:52:52.724Z,69.36
2019-03-05T20:55:22.340Z,69.04
2019-03-05T20:57:51.636Z,69.41
2019-03-05T21:00:25.287Z,69.58
2019-03-05T21:02:56.220Z,69.39
2019-03-05T21:05:27.329Z,69.37
2019-03-05T21:07:56.636Z,69.69
2019-03-05T21:10:25.924Z,69.79
2019-03-05T21:12:55.254Z,70.04
2019-03-05T21:15:24.522Z,69.91
2019-03-05T21:17:54.020Z,69.99
2019-03-05T21:20:23.246Z,69.72
2019-03-05T21:22:52.530Z,69.98
2019-03-05T21:25:21.752Z,69.85
2019-03-05T21:27:50.972Z,69.78
2019-03-05T21:30:20.448Z,69.75
2019-03-05T21:32:49.693Z,69.73
2019-03-05T21:35:18.963Z,69.71
2019-03-05T21:37:48.178Z,71.44
2019-03-05T21:40:21.930Z,72.49
2019-03-05T21:42:51.272Z,69.29
2019-03-05T21:45:23.791Z,69.47
2019-03-05T21:47:53.046Z,69.35
2019-03-05T21:50:24.842Z,68.67
2019-03-05T21:52:54.207Z,69.12
2019-03-05T21:55:23.428Z,69.33
2019-03-05T21:57:52.674Z,69.69
2019-03-05T22:00:24.033Z,70.01
2019-03-05T22:02:53.428Z,70.31
2019-03-05T22:05:22.762Z,70.49
2019-03-05T22:07:51.980Z,70.48
2019-03-05T22:10:21.233Z,70.79
2019-03-05T22:12:50.487Z,70.95
2019-03-05T22:15:20.019Z,71.13
2019-03-05T22:17:49.631Z,71.23
2019-03-05T22:20:18.904Z,71.38
2019-03-05T22:22:48.193Z,71.42
2019-03-05T22:25:18.359Z,71.60
2019-03-05T22:27:47.618Z,71.82
2019-03-05T22:30:18.782Z,71.71
2019-03-05T22:32:47.990Z,71.78
2019-03-05T22:35:18.035Z,71.70
2019-03-05T22:37:47.234Z,71.84
2019-03-05T22:40:16.592Z,72.07
2019-03-05T22:42:45.843Z,72.29
2019-03-05T22:45:17.192Z,72.72
2019-03-05T22:47:46.571Z,72.93
2019-03-05T22:50:15.934Z,73.28
2019-03-05T22:52:45.179Z,73.24
2019-03-05T22:55:14.403Z,73.39
2019-03-05T22:57:43.750Z,73.51
2019-03-05T23:00:16.946Z,73.60
2019-03-05T23:02:46.172Z,73.80
2019-03-05T23:05:15.539Z,74.05
2019-03-05T23:07:44.768Z,74.30
2019-03-05T23:10:13.991Z,74.46
2019-03-05T23:12:43.261Z,74.70
2019-03-05T23:15:12.516Z,74.72
2019-03-05T23:17:41.773Z,74.76
2019-03-05T23:20:11.038Z,74.99
2019-03-05T23:22:40.283Z,75.15
2019-03-05T23:25:09.528Z,75.54
2019-03-05T23:27:38.754Z,75.30
2019-03-05T23:30:08.306Z,75.35
2019-03-05T23:32:37.501Z,75.52
2019-03-05T23:35:08.005Z,75.22
2019-03-05T23:37:37.234Z,75.36
2019-03-05T23:40:06.642Z,75.28
2019-03-05T23:42:35.870Z,75.35
2019-03-05T23:45:05.486Z,75.39
2019-03-05T23:47:34.718Z,75.50
2019-03-05T23:50:03.980Z,75.55
2019-03-05T23:52:33.219Z,75.37
2019-03-05T23:55:02.418Z,75.44
2019-03-05T23:57:31.646Z,75.37
